createdAt,value
2018-10-07T00:01:10.066Z,68.72
2018-10-07T00:03:38.490Z,68.75
2018-10-07T00:06:07.297Z,69.03
2018-10-07T00:08:35.698Z,69.41
2018-10-07T00:11:04.119Z,68.98
2018-10-07T00:13:32.695Z,69.34
2018-10-07T00:16:01.118Z,69.18
2018-10-07T00:18:29.518Z,69.08
2018-10-07T00:20:58.054Z,69.39
2018-10-07T00:23:26.450Z,69.56
2018-10-07T00:25:54.863Z,69.82
2018-10-07T00:28:23.553Z,69.92
2018-10-07T00:30:52.027Z,69.82
2018-10-07T00:33:21.305Z,70.10
2018-10-07T00:35:49.963Z,70.48
2018-10-07T00:38:18.551Z,70.54
2018-10-07T00:40:46.959Z,70.65
2018-10-07T00:43:16.019Z,70.45
2018-10-07T00:45:44.460Z,70.44
2018-10-07T00:48:12.879Z,70.34
2018-10-07T00:50:41.487Z,70.70
2018-10-07T00:53:09.882Z,70.64
2018-10-07T00:55:38.271Z,71.09
2018-10-07T00:58:06.874Z,71.07
2018-10-07T01:00:35.318Z,70.84
2018-10-07T01:03:04.107Z,70.95
2018-10-07T01:05:32.633Z,71.02
2018-10-07T01:08:01.018Z,70.97
2018-10-07T01:10:29.436Z,71.08
2018-10-07T01:12:58.090Z,71.42
2018-10-07T01:15:26.519Z,71.47
2018-10-07T01:17:54.914Z,71.18
2018-10-07T01:20:23.550Z,71.37
2018-10-07T01:22:52.046Z,71.37
2018-10-07T01:25:20.494Z,71.21
2018-10-07T01:27:49.094Z,71.42
2018-10-07T01:30:22.155Z,71.40
2018-10-07T01:32:51.838Z,71.01
2018-10-07T01:35:20.462Z,71.33
2018-10-07T01:37:48.970Z,70.94
2018-10-07T01:40:17.490Z,71.03
2018-10-07T01:42:46.023Z,71.03
2018-10-07T01:45:14.627Z,71.11
2018-10-07T01:47:44.387Z,71.04
2018-10-07T01:50:12.783Z,71.09
2018-10-07T01:52:41.373Z,71.64
2018-10-07T01:55:09.940Z,71.60
2018-10-07T01:57:38.339Z,71.60
2018-10-07T02:00:06.783Z,71.56
2018-10-07T02:02:35.318Z,71.70
2018-10-07T02:05:03.941Z,71.69
2018-10-07T02:07:32.386Z,71.82
2018-10-07T02:10:00.928Z,71.85
2018-10-07T02:12:29.331Z,71.83
2018-10-07T02:14:57.738Z,72.00
2018-10-07T02:17:26.241Z,71.69
2018-10-07T02:19:54.626Z,71.88
2018-10-07T02:22:23.135Z,71.91
2018-10-07T02:24:51.991Z,71.84
2018-10-07T02:27:20.406Z,71.89
2018-10-07T02:29:48.799Z,71.66
2018-10-07T02:32:17.569Z,71.92
2018-10-07T02:34:45.964Z,71.91
2018-10-07T02:37:14.554Z,71.83
2018-10-07T02:39:43.916Z,71.78
2018-10-07T02:42:12.397Z,72.00
2018-10-07T02:44:40.787Z,71.68
2018-10-07T02:47:09.939Z,71.67
2018-10-07T02:49:38.322Z,71.51
2018-10-07T02:52:07.037Z,71.65
2018-10-07T02:54:35.616Z,71.52
2018-10-07T02:57:04.066Z,71.61
2018-10-07T02:59:32.546Z,71.43
2018-10-07T03:02:01.782Z,71.50
2018-10-07T03:04:30.227Z,71.51
2018-10-07T03:06:58.642Z,71.16
2018-10-07T03:09:27.172Z,71.07
2018-10-07T03:11:55.566Z,71.10
2018-10-07T03:14:24.026Z,70.85
2018-10-07T03:16:52.646Z,71.11
2018-10-07T03:19:21.035Z,70.97
2018-10-07T03:21:49.435Z,71.03
2018-10-07T03:24:18.395Z,71.10
2018-10-07T03:26:47.163Z,70.87
2018-10-07T03:29:15.556Z,70.98
2018-10-07T03:31:44.246Z,70.95
2018-10-07T03:34:12.760Z,71.07
2018-10-07T03:36:41.170Z,71.04
2018-10-07T03:39:10.099Z,70.84
2018-10-07T03:41:38.963Z,71.15
2018-10-07T03:44:07.415Z,71.06
2018-10-07T03:46:36.234Z,70.86
2018-10-07T03:49:04.907Z,70.92
2018-10-07T03:51:33.302Z,71.15
2018-10-07T03:54:02.022Z,71.02
2018-10-07T03:56:30.422Z,71.17
2018-10-07T03:58:58.829Z,71.02
2018-10-07T04:01:27.455Z,70.90
2018-10-07T04:03:55.884Z,71.19
2018-10-07T04:06:24.362Z,71.16
2018-10-07T04:08:52.925Z,71.07
2018-10-07T04:11:21.326Z,71.09
2018-10-07T04:13:49.726Z,71.28
2018-10-07T04:16:18.242Z,71.23
2018-10-07T04:18:46.621Z,71.10
2018-10-07T04:21:15.044Z,71.27
2018-10-07T04:23:43.583Z,71.23
2018-10-07T04:26:12.019Z,71.46
2018-10-07T04:28:40.430Z,71.09
2018-10-07T04:31:09.219Z,71.45
2018-10-07T04:33:37.620Z,71.62
2018-10-07T04:36:06.037Z,71.64
2018-10-07T04:38:35.019Z,71.73
2018-10-07T04:41:03.845Z,71.74
2018-10-07T04:43:32.249Z,71.92
2018-10-07T04:46:01.061Z,72.03
2018-10-07T04:48:29.494Z,72.08
2018-10-07T04:50:58.115Z,72.40
2018-10-07T04:53:26.776Z,72.63
2018-10-07T04:55:55.183Z,72.68
2018-10-07T04:58:23.778Z,72.82
2018-10-07T05:00:52.358Z,73.02
2018-10-07T05:03:20.755Z,73.11
2018-10-07T05:05:49.578Z,73.20
2018-10-07T05:08:18.249Z,73.39
2018-10-07T05:10:49.359Z,73.27
2018-10-07T05:13:22.274Z,73.41
2018-10-07T05:15:54.289Z,73.41
2018-10-07T05:18:22.945Z,73.33
2018-10-07T05:20:57.713Z,73.48
2018-10-07T05:23:26.135Z,73.46
2018-10-07T05:25:54.566Z,73.71
2018-10-07T05:28:23.403Z,73.76
2018-10-07T05:30:52.231Z,73.55
2018-10-07T05:33:20.761Z,73.72
2018-10-07T05:35:49.451Z,73.67
2018-10-07T05:38:17.878Z,74.01
2018-10-07T05:40:46.286Z,74.17
2018-10-07T05:43:14.914Z,73.82
2018-10-07T05:45:43.330Z,73.93
2018-10-07T05:48:11.774Z,73.81
2018-10-07T05:50:40.799Z,73.99
2018-10-07T05:53:09.619Z,73.84
2018-10-07T05:55:38.054Z,74.00
2018-10-07T05:58:06.653Z,73.95
2018-10-07T06:00:36.429Z,73.68
2018-10-07T06:03:09.066Z,73.98
2018-10-07T06:05:37.590Z,73.69
2018-10-07T06:08:06.182Z,74.14
2018-10-07T06:10:34.740Z,74.08
2018-10-07T06:13:03.229Z,74.00
2018-10-07T06:15:38.798Z,74.14
2018-10-07T06:18:07.455Z,73.79
2018-10-07T06:20:35.899Z,73.93
2018-10-07T06:23:04.346Z,73.96
2018-10-07T06:25:33.635Z,73.72
2018-10-07T06:28:02.348Z,73.88
2018-10-07T06:30:30.789Z,73.78
2018-10-07T06:32:59.419Z,73.83
2018-10-07T06:35:27.889Z,73.68
2018-10-07T06:37:56.904Z,73.71
2018-10-07T06:40:25.469Z,73.54
2018-10-07T06:42:53.930Z,73.60
2018-10-07T06:45:22.562Z,73.52
2018-10-07T06:47:51.495Z,73.52
2018-10-07T06:50:19.980Z,73.11
2018-10-07T06:52:48.414Z,73.32
2018-10-07T06:55:17.179Z,73.15
2018-10-07T06:57:45.620Z,73.10
2018-10-07T07:00:14.213Z,72.99
2018-10-07T07:02:42.822Z,72.99
2018-10-07T07:05:11.304Z,72.84
2018-10-07T07:07:39.699Z,72.63
2018-10-07T07:10:08.319Z,72.55
2018-10-07T07:12:36.738Z,72.59
2018-10-07T07:15:05.502Z,72.36
2018-10-07T07:17:34.182Z,72.39
2018-10-07T07:20:02.694Z,72.07
2018-10-07T07:22:31.086Z,72.05
2018-10-07T07:24:59.958Z,72.06
2018-10-07T07:27:28.373Z,71.87
2018-10-07T07:29:56.817Z,71.60
2018-10-07T07:32:25.586Z,71.89
2018-10-07T07:34:54.049Z,71.57
2018-10-07T07:37:22.474Z,71.50
2018-10-07T07:39:51.159Z,71.49
2018-10-07T07:42:19.573Z,71.33
2018-10-07T07:44:47.982Z,71.41
2018-10-07T07:47:16.974Z,71.22
2018-10-07T07:49:45.383Z,71.33
2018-10-07T07:52:13.806Z,71.36
2018-10-07T07:54:42.823Z,71.31
2018-10-07T07:57:11.570Z,71.09
2018-10-07T07:59:39.959Z,71.30
2018-10-07T08:02:08.508Z,71.45
2018-10-07T08:04:36.923Z,71.18
2018-10-07T08:07:05.391Z,70.94
2018-10-07T08:09:34.128Z,70.78
2018-10-07T08:12:02.612Z,71.26
2018-10-07T08:14:31.058Z,71.45
2018-10-07T08:17:00.190Z,71.49
2018-10-07T08:19:28.583Z,72.01
2018-10-07T08:21:56.985Z,71.15
2018-10-07T08:24:25.653Z,69.95
2018-10-07T08:26:54.134Z,68.54
2018-10-07T08:29:22.616Z,67.02
2018-10-07T08:31:51.206Z,65.28
2018-10-07T08:34:19.594Z,63.84
2018-10-07T08:36:54.882Z,62.50
2018-10-07T08:39:23.329Z,61.07
2018-10-07T08:41:51.744Z,59.71
2018-10-07T08:44:20.639Z,58.35
2018-10-07T08:46:49.046Z,56.94
2018-10-07T08:49:20.579Z,56.08
2018-10-07T08:51:49.455Z,55.52
2018-10-07T08:54:17.864Z,54.54
2018-10-07T08:56:46.282Z,54.15
2018-10-07T08:59:14.906Z,53.11
2018-10-07T09:01:43.314Z,52.21
2018-10-07T09:04:11.706Z,51.50
2018-10-07T09:06:40.351Z,50.05
2018-10-07T09:09:09.886Z,49.94
2018-10-07T09:11:38.310Z,49.23
2018-10-07T09:14:06.998Z,47.79
2018-10-07T09:16:35.465Z,47.97
2018-10-07T09:19:04.021Z,47.72
2018-10-07T09:21:32.764Z,46.94
2018-10-07T09:24:01.187Z,46.96
2018-10-07T09:26:36.622Z,45.78
2018-10-07T09:29:05.104Z,45.53
2018-10-07T09:31:33.663Z,45.03
2018-10-07T09:34:02.326Z,44.64
2018-10-07T09:36:30.771Z,43.49
2018-10-07T09:38:59.498Z,42.73
2018-10-07T09:41:28.555Z,41.44
2018-10-07T09:43:56.962Z,41.20
2018-10-07T09:46:25.496Z,41.08
2018-10-07T09:48:54.454Z,40.61
2018-10-07T09:51:23.015Z,40.12
2018-10-07T09:53:51.423Z,39.38
2018-10-07T09:56:20.204Z,38.79
2018-10-07T09:58:48.610Z,38.43
2018-10-07T10:01:17.204Z,37.52
2018-10-07T10:03:45.730Z,37.99
2018-10-07T10:06:14.167Z,37.53
2018-10-07T10:08:42.646Z,37.50
2018-10-07T10:11:11.317Z,37.07
2018-10-07T10:13:39.737Z,37.49
2018-10-07T10:16:08.203Z,36.94
2018-10-07T10:18:46.974Z,36.33
2018-10-07T10:21:25.722Z,36.16
2018-10-07T10:24:09.211Z,35.69
2018-10-07T10:26:45.713Z,35.31
2018-10-07T10:29:18.110Z,35.40
2018-10-07T10:31:53.274Z,35.38
2018-10-07T10:36:40.373Z,35.04
2018-10-07T10:39:19.801Z,35.93
2018-10-07T10:41:53.994Z,35.14
2018-10-07T10:44:29.008Z,34.76
2018-10-07T10:47:34.173Z,35.00
2018-10-07T10:50:10.594Z,34.56
2018-10-07T10:53:50.208Z,34.55
2018-10-07T10:56:25.650Z,34.78
2018-10-07T10:59:12.953Z,34.28
2018-10-07T11:01:58.773Z,34.30
2018-10-07T11:04:37.121Z,34.84
2018-10-07T11:07:13.658Z,34.25
2018-10-07T11:11:58.538Z,34.23
2018-10-07T11:15:07.962Z,34.86
2018-10-07T11:19:51.903Z,35.33
2018-10-07T11:22:35.154Z,35.49
2018-10-07T11:25:13.772Z,34.92
2018-10-07T11:27:53.503Z,34.54
2018-10-07T11:30:37.110Z,34.28
2018-10-07T11:34:18.711Z,34.55
2018-10-07T11:36:56.138Z,34.38
2018-10-07T11:39:40.078Z,34.43
2018-10-07T11:42:12.369Z,34.48
2018-10-07T11:45:01.840Z,34.28
2018-10-07T11:49:42.148Z,34.42
2018-10-07T11:52:25.435Z,34.52
2018-10-07T11:54:55.088Z,34.61
2018-10-07T11:57:23.515Z,34.92
2018-10-07T11:59:51.910Z,34.79
2018-10-07T12:02:21.487Z,34.68
2018-10-07T12:04:49.894Z,34.36
2018-10-07T12:07:18.536Z,34.53
2018-10-07T12:09:47.065Z,34.44
2018-10-07T12:12:16.409Z,34.58
2018-10-07T12:14:45.314Z,34.54
2018-10-07T12:17:14.511Z,34.59
2018-10-07T12:19:43.026Z,34.40
2018-10-07T12:22:11.474Z,33.94
2018-10-07T12:24:40.452Z,33.46
2018-10-07T12:27:09.871Z,33.57
2018-10-07T12:29:38.274Z,33.24
2018-10-07T12:32:07.186Z,33.33
2018-10-07T12:34:35.686Z,32.74
2018-10-07T12:37:04.143Z,33.09
2018-10-07T12:39:32.831Z,32.64
2018-10-07T12:42:01.330Z,32.87
2018-10-07T12:44:36.388Z,32.30
2018-10-07T12:47:04.847Z,32.48
2018-10-07T12:49:33.303Z,31.94
2018-10-07T12:52:02.013Z,32.15
2018-10-07T12:54:30.500Z,31.64
2018-10-07T12:56:58.987Z,32.06
2018-10-07T12:59:27.446Z,32.00
2018-10-07T13:01:55.862Z,31.63
2018-10-07T13:04:24.571Z,31.08
2018-10-07T13:06:53.427Z,30.70
2018-10-07T13:09:21.848Z,31.05
2018-10-07T13:11:50.271Z,30.87
2018-10-07T13:14:18.820Z,31.11
2018-10-07T13:16:47.223Z,31.02
2018-10-07T13:19:15.767Z,30.64
2018-10-07T13:21:44.209Z,30.69
2018-10-07T13:24:12.651Z,30.49
2018-10-07T13:26:41.142Z,30.52
2018-10-07T13:29:09.961Z,30.33
2018-10-07T13:31:38.418Z,30.56
2018-10-07T13:34:06.928Z,30.13
2018-10-07T13:36:35.448Z,29.98
2018-10-07T13:39:05.262Z,29.82
2018-10-07T13:41:33.686Z,30.05
2018-10-07T13:44:02.663Z,30.01
2018-10-07T13:46:31.102Z,29.78
2018-10-07T13:49:02.356Z,29.74
2018-10-07T13:51:30.835Z,29.78
2018-10-07T13:53:59.270Z,29.49
2018-10-07T13:56:27.984Z,29.23
2018-10-07T13:58:56.722Z,29.10
2018-10-07T14:01:25.216Z,29.28
2018-10-07T14:03:53.669Z,29.32
2018-10-07T14:06:22.262Z,28.90
2018-10-07T14:08:50.894Z,29.02
2018-10-07T14:11:19.484Z,28.40
2018-10-07T14:13:48.451Z,28.30
2018-10-07T14:16:16.858Z,28.61
2018-10-07T14:18:45.286Z,28.39
2018-10-07T14:21:14.187Z,28.53
2018-10-07T14:23:42.619Z,28.59
2018-10-07T14:26:11.046Z,28.43
2018-10-07T14:28:39.551Z,28.87
2018-10-07T14:31:08.226Z,28.29
2018-10-07T14:33:37.008Z,28.52
2018-10-07T14:36:05.539Z,29.29
2018-10-07T14:38:33.967Z,29.36
2018-10-07T14:41:02.387Z,29.21
2018-10-07T14:43:30.934Z,29.51
2018-10-07T14:45:59.374Z,29.11
2018-10-07T14:48:27.811Z,29.30
2018-10-07T14:50:56.398Z,30.04
2018-10-07T14:53:24.813Z,30.08
2018-10-07T14:55:53.262Z,30.64
2018-10-07T14:58:21.758Z,31.74
2018-10-07T15:00:50.338Z,33.07
2018-10-07T15:03:18.775Z,33.82
2018-10-07T15:05:47.374Z,34.98
2018-10-07T15:08:16.139Z,35.55
2018-10-07T15:10:44.598Z,36.33
2018-10-07T15:13:13.143Z,37.02
2018-10-07T15:15:41.614Z,37.56
2018-10-07T15:18:10.039Z,38.21
2018-10-07T15:20:38.951Z,38.67
2018-10-07T15:23:07.375Z,39.44
2018-10-07T15:25:35.788Z,39.73
2018-10-07T15:28:04.682Z,40.09
2018-10-07T15:30:33.494Z,40.87
2018-10-07T15:33:01.937Z,41.04
2018-10-07T15:35:30.897Z,41.25
2018-10-07T15:37:59.352Z,41.73
2018-10-07T15:40:27.780Z,41.93
2018-10-07T15:42:56.246Z,42.70
2018-10-07T15:45:24.673Z,42.71
2018-10-07T15:47:53.075Z,43.18
2018-10-07T15:50:21.687Z,43.34
2018-10-07T15:52:50.086Z,43.61
2018-10-07T15:55:18.482Z,43.87
2018-10-07T15:57:47.111Z,44.35
2018-10-07T16:00:15.515Z,44.10
2018-10-07T16:02:44.095Z,44.52
2018-10-07T16:05:12.802Z,44.45
2018-10-07T16:07:41.238Z,44.80
2018-10-07T16:10:09.781Z,45.43
2018-10-07T16:12:38.262Z,45.38
2018-10-07T16:15:06.678Z,45.54
2018-10-07T16:17:35.344Z,45.93
2018-10-07T16:20:03.864Z,46.44
2018-10-07T16:22:32.274Z,46.63
2018-10-07T16:25:00.695Z,46.86
2018-10-07T16:27:29.515Z,47.09
2018-10-07T16:29:57.949Z,47.18
2018-10-07T16:32:26.362Z,47.49
2018-10-07T16:34:54.852Z,47.72
2018-10-07T16:37:23.345Z,48.31
2018-10-07T16:39:51.745Z,48.28
2018-10-07T16:42:20.730Z,48.69
2018-10-07T16:44:49.139Z,48.67
2018-10-07T16:47:17.600Z,48.98
2018-10-07T16:49:46.375Z,49.14
2018-10-07T16:52:14.810Z,49.32
2018-10-07T16:54:43.250Z,49.55
2018-10-07T16:57:12.183Z,50.05
2018-10-07T16:59:40.582Z,49.91
2018-10-07T17:02:09.023Z,50.60
2018-10-07T17:04:37.667Z,50.96
2018-10-07T17:07:06.107Z,51.34
2018-10-07T17:09:34.550Z,51.31
2018-10-07T17:12:03.114Z,51.57
2018-10-07T17:14:31.522Z,51.98
2018-10-07T17:16:59.954Z,52.24
2018-10-07T17:19:28.510Z,52.48
2018-10-07T17:21:56.937Z,52.90
2018-10-07T17:24:25.366Z,53.43
2018-10-07T17:26:54.017Z,53.73
2018-10-07T17:29:22.420Z,53.93
2018-10-07T17:31:51.750Z,54.46
2018-10-07T17:34:20.322Z,54.42
2018-10-07T17:36:48.734Z,54.52
2018-10-07T17:39:17.146Z,54.70
2018-10-07T17:41:46.026Z,54.78
2018-10-07T17:44:14.444Z,55.03
2018-10-07T17:46:42.919Z,55.72
2018-10-07T17:49:12.004Z,55.71
2018-10-07T17:51:40.369Z,56.04
2018-10-07T17:54:08.860Z,56.13
2018-10-07T17:56:37.364Z,56.20
2018-10-07T17:59:05.779Z,56.47
2018-10-07T18:01:34.326Z,56.78
2018-10-07T18:04:02.846Z,56.97
2018-10-07T18:06:31.411Z,57.40
2018-10-07T18:08:59.919Z,57.67
2018-10-07T18:11:28.318Z,57.60
2018-10-07T18:13:57.034Z,57.90
2018-10-07T18:16:25.423Z,58.03
2018-10-07T18:18:53.863Z,58.10
2018-10-07T18:21:22.263Z,58.59
2018-10-07T18:23:50.667Z,58.51
2018-10-07T18:26:19.193Z,58.96
2018-10-07T18:28:47.606Z,59.08
2018-10-07T18:31:16.008Z,59.45
2018-10-07T18:33:44.441Z,59.59
2018-10-07T18:36:12.862Z,59.88
2018-10-07T18:38:41.412Z,59.89
2018-10-07T18:41:10.802Z,59.84
2018-10-07T18:43:40.292Z,60.19
2018-10-07T18:46:09.248Z,60.42
2018-10-07T18:48:40.271Z,60.46
2018-10-07T18:51:09.412Z,60.67
2018-10-07T18:53:38.043Z,60.86
2018-10-07T18:56:06.664Z,61.04
2018-10-07T18:58:35.419Z,61.24
2018-10-07T19:01:04.483Z,60.84
2018-10-07T19:03:33.079Z,61.50
2018-10-07T19:06:01.493Z,61.50
2018-10-07T19:08:30.095Z,61.39
2018-10-07T19:10:58.489Z,61.68
2018-10-07T19:13:26.875Z,61.80
2018-10-07T19:15:55.702Z,62.09
2018-10-07T19:18:24.263Z,62.14
2018-10-07T19:20:52.664Z,62.32
2018-10-07T19:23:21.067Z,62.64
2018-10-07T19:25:49.743Z,62.71
2018-10-07T19:28:18.175Z,62.94
2018-10-07T19:30:46.588Z,63.02
2018-10-07T19:33:15.434Z,63.23
2018-10-07T19:35:43.839Z,63.21
2018-10-07T19:38:12.284Z,63.31
2018-10-07T19:40:40.810Z,63.65
2018-10-07T19:43:09.233Z,63.90
2018-10-07T19:45:37.670Z,64.22
2018-10-07T19:48:06.187Z,64.35
2018-10-07T19:50:34.611Z,64.59
2018-10-07T19:53:03.046Z,64.84
2018-10-07T19:55:31.723Z,64.97
2018-10-07T19:58:00.228Z,65.03
2018-10-07T20:00:28.728Z,65.31
2018-10-07T20:02:57.269Z,65.66
2018-10-07T20:05:25.726Z,65.88
2018-10-07T20:07:54.222Z,66.05
2018-10-07T20:10:23.207Z,66.29
2018-10-07T20:12:51.591Z,66.55
2018-10-07T20:15:19.984Z,66.67
2018-10-07T20:17:49.142Z,66.45
2018-10-07T20:20:17.526Z,66.80
2018-10-07T20:22:52.453Z,67.02
2018-10-07T20:25:20.858Z,67.08
2018-10-07T20:27:49.271Z,67.48
2018-10-07T20:30:18.025Z,67.16
2018-10-07T20:32:46.502Z,67.11
2018-10-07T20:35:14.907Z,67.14
2018-10-07T20:37:43.600Z,67.02
2018-10-07T20:40:12.057Z,67.01
2018-10-07T20:42:40.396Z,67.20
2018-10-07T20:45:09.030Z,66.98
2018-10-07T20:47:37.433Z,67.19
2018-10-07T20:50:06.235Z,67.15
2018-10-07T20:52:35.175Z,67.29
2018-10-07T20:55:03.563Z,67.04
2018-10-07T20:57:31.938Z,66.96
2018-10-07T21:00:00.550Z,67.07
2018-10-07T21:02:28.965Z,66.81
2018-10-07T21:04:57.366Z,66.90
2018-10-07T21:07:25.826Z,67.02
2018-10-07T21:09:54.247Z,67.28
2018-10-07T21:12:23.102Z,67.28
2018-10-07T21:14:51.623Z,66.93
2018-10-07T21:17:20.037Z,66.90
2018-10-07T21:19:48.730Z,66.46
2018-10-07T21:22:17.310Z,66.72
2018-10-07T21:24:45.739Z,66.44
2018-10-07T21:27:14.178Z,66.42
2018-10-07T21:29:42.721Z,66.26
2018-10-07T21:32:11.119Z,66.31
2018-10-07T21:34:39.507Z,66.13
2018-10-07T21:37:07.976Z,66.11
2018-10-07T21:39:36.368Z,66.33
2018-10-07T21:42:04.786Z,66.14
2018-10-07T21:44:33.362Z,66.14
2018-10-07T21:47:01.809Z,66.20
2018-10-07T21:49:30.255Z,66.08
2018-10-07T21:51:58.718Z,65.99
2018-10-07T21:54:27.131Z,65.78
2018-10-07T21:56:55.560Z,65.62
2018-10-07T21:59:24.690Z,65.81
2018-10-07T22:01:53.112Z,65.76
2018-10-07T22:04:21.534Z,65.63
2018-10-07T22:06:50.450Z,65.45
2018-10-07T22:09:18.886Z,65.59
2018-10-07T22:11:47.305Z,65.46
2018-10-07T22:14:16.010Z,65.35
2018-10-07T22:16:44.418Z,65.39
2018-10-07T22:19:12.810Z,65.11
2018-10-07T22:21:41.383Z,65.00
2018-10-07T22:24:09.786Z,65.02
2018-10-07T22:26:38.182Z,65.03
2018-10-07T22:29:07.054Z,64.82
2018-10-07T22:31:35.516Z,65.07
2018-10-07T22:34:03.931Z,64.69
2018-10-07T22:36:32.455Z,64.63
2018-10-07T22:39:01.068Z,64.43
2018-10-07T22:41:29.490Z,64.32
2018-10-07T22:43:58.332Z,64.31
2018-10-07T22:46:26.741Z,63.82
2018-10-07T22:48:55.137Z,63.76
2018-10-07T22:51:24.095Z,63.84
2018-10-07T22:53:52.559Z,63.44
2018-10-07T22:56:20.952Z,63.78
2018-10-07T22:58:50.171Z,63.56
2018-10-07T23:01:18.595Z,63.66
2018-10-07T23:03:46.970Z,63.28
2018-10-07T23:06:15.450Z,63.38
2018-10-07T23:08:43.911Z,63.34
2018-10-07T23:11:12.294Z,63.12
2018-10-07T23:13:40.834Z,63.17
2018-10-07T23:16:09.438Z,63.20
2018-10-07T23:18:37.825Z,63.10
2018-10-07T23:21:06.293Z,63.33
2018-10-07T23:23:35.102Z,63.40
2018-10-07T23:26:03.510Z,63.31
2018-10-07T23:28:31.944Z,63.43
2018-10-07T23:31:00.340Z,63.16
2018-10-07T23:33:28.812Z,63.42
2018-10-07T23:35:57.404Z,63.44
2018-10-07T23:38:25.823Z,63.30
2018-10-07T23:40:55.477Z,63.35
2018-10-07T23:43:23.999Z,63.28
2018-10-07T23:45:52.411Z,63.27
2018-10-07T23:48:20.835Z,63.29
2018-10-07T23:50:49.271Z,63.43
2018-10-07T23:53:17.670Z,63.57
2018-10-07T23:55:46.059Z,63.60
2018-10-07T23:58:20.947Z,63.72
